Port Arthur, TX

10:58 AM CDT on July 28, 2016 (GMT -0500)
Southeast Texas Regional | | Change Station

Elev 13 ft 29.95 °N, 94.02 °W | Updated 5 minutes ago

Clear
Clear
86 °F
Feels Like 98 °F
N
9
Wind Variable Wind from SSW

Today
High -- | Low -- °F
--% Chance of Precip.
Yesterday
High -- | Low -- °F
Precip. -- in
Pressure 30.02 in
Visibility 10.0 miles
Clouds Clear
Heat Index 98 °F
Dew Point 78 °F
Humidity 77%
Rainfall 0.00 in
Snow Depth Not available.
6:33 AM 8:11 PM
Waning Crescent, 31% visible
METAR KBPT 281553Z 21008KT 10SM CLR 30/26 A3002 RMK AO2 SLP164 T03000256
Pressure 30.02 in
Visibility 10.0 miles
Clouds Clear
Heat Index 98 °F
Dew Point 78 °F
Humidity 77%
Rainfall 0.00 in
Snow Depth Not available.
6:33 AM 8:11 PM
Waning Crescent, 31% visible
METAR KBPT 281553Z 21008KT 10SM CLR 30/26 A3002 RMK AO2 SLP164 T03000256

10-Day Weather Forecast

Almanac

Astronomy

Jul. 28, 2016 Rise Set
Actual Time
Civil Twilight
Nautical Twilight
Astronomical Twilight
Moon
Length of Visible Light
Length of Day
Tomorrow will be .
, % of the Moon is Illuminated

Today's Extremes

State Highs State Lows

Community

WunderPhotos

Upload Photos

1,928,140 photos uploaded!

WunderBlog® & News

Nearby

Air Quality

  Air Quality AQ Index Pollutant
Not available.

Snow Depth

Station Depth Elevation

Earthquake Activity

City Distance Mag. Time & Date
Minimum magnitude displayed is 2.5.

Coastal Water Temperatures

Place Temperature

Stations

Nearby Weather Stations

Station Location Temp. Windchill Dew Point Humidity Wind Precip. Elev Updated Type
                   

Watches & Warnings

There are currently no watches in effect.